Churchville, New York
Current Conditions -  °F | °C
As of 7:54 PM on Thursday 27 Nov 2014 (Local Time) from KROC Reporting Station
Overcast Overcast  
Wind Chill: 27°   Ceiling: 3500
Heat Index: 32°   Visibility: 10mi
Dew Point: 25°   Wind: 5mph
Humidity: 75%   Direction: 310°NW
Pressure: 30.07"   Gusts: NA
Location:  43.1°N, 77.88°W
Report Text: KROC 280054Z 31004KT 10SM BKN035 OVC090 00/M04 A3007 RMK AO2 SLP194 BINOVC T00001039
Loading
Personal Weather Stations






























Interactive Weather Map New forecast layout! Learn more

10-Day Weather Forecast

Advertisements
Track Severe Weather on mobile